Time;durP1;ratioP1;P1;durP2;ratioP2;P2;SDS_P1;SDS_P2;PMS_P1;PMS_P2;Temp;Humidity;BMP_temperature;BMP_pressure;BME280_temperature;BME280_humidity;BME280_pressure;Samples;Min_cycle;Max_cycle;Signal;HPM_P1;HPM_P2
2023/03/31 00:02:21;;;;;;;6.97;1.77;;;10.40;99.90;;;;;;5038774;28;20131;-81
2023/03/31 00:04:51;;;;;;;4.47;1.50;;;10.40;99.90;;;;;;5032785;28;20025;-82
2023/03/31 00:07:20;;;;;;;10.90;2.30;;;10.40;99.90;;;;;;5034463;28;20022;-80
2023/03/31 00:09:47;;;;;;;12.25;2.85;;;10.40;99.90;;;;;;5042754;28;20025;-80
2023/03/31 00:12:14;;;;;;;10.95;2.30;;;10.40;99.90;;;;;;5033226;28;20029;-82
2023/03/31 00:14:41;;;;;;;11.50;1.92;;;10.40;99.90;;;;;;5027983;28;20050;-80
2023/03/31 00:17:08;;;;;;;18.92;2.28;;;10.40;99.90;;;;;;5029102;28;20057;-83
2023/03/31 00:19:33;;;;;;;10.38;1.90;;;10.30;99.90;;;;;;5030045;28;20059;-81
2023/03/31 00:22:00;;;;;;;13.48;2.10;;;10.30;99.90;;;;;;5029018;28;20072;-82
2023/03/31 00:24:28;;;;;;;6.38;1.92;;;10.30;99.90;;;;;;5026924;28;20026;-81
2023/03/31 00:26:53;;;;;;;9.60;3.10;;;10.30;99.90;;;;;;5021250;28;20112;-82
2023/03/31 00:29:19;;;;;;;6.80;2.38;;;10.30;99.90;;;;;;5029377;28;20125;-83
2023/03/31 00:31:44;;;;;;;4.53;2.22;;;10.30;99.90;;;;;;5027472;28;20071;-82
2023/03/31 00:34:10;;;;;;;8.35;1.80;;;10.30;99.90;;;;;;5029974;28;20478;-82
2023/03/31 00:36:46;;;;;;;9.27;2.20;;;10.30;99.90;;;;;;5032302;28;20021;-82
2023/03/31 00:39:12;;;;;;;3.35;1.30;;;10.30;99.90;;;;;;5035137;28;20120;-82
2023/03/31 00:41:38;;;;;;;9.95;1.70;;;10.20;99.90;;;;;;5035079;28;20043;-82
2023/03/31 00:44:17;;;;;;;8.43;1.77;;;10.20;99.90;;;;;;5032152;28;20128;-82
2023/03/31 00:46:54;;;;;;;6.95;1.90;;;10.10;99.90;;;;;;5039958;28;20035;-81
2023/03/31 00:49:20;;;;;;;13.93;1.75;;;10.10;99.90;;;;;;5034053;28;20088;-82
2023/03/31 00:51:50;;;;;;;4.22;1.55;;;10.00;99.90;;;;;;5037951;28;20565;-82
2023/03/31 00:54:18;;;;;;;5.72;1.58;;;10.00;99.90;;;;;;5025231;28;20120;-82
2023/03/31 00:56:47;;;;;;;15.45;3.03;;;10.00;99.90;;;;;;5029014;28;20109;-82
2023/03/31 00:59:13;;;;;;;11.80;2.30;;;10.00;99.90;;;;;;5027475;28;20113;-82
2023/03/31 01:01:43;;;;;;;14.10;2.45;;;10.00;99.90;;;;;;5026338;28;20254;-82
2023/03/31 01:04:11;;;;;;;8.85;1.98;;;10.00;99.90;;;;;;5037679;28;20033;-82
2023/03/31 01:06:45;;;;;;;7.72;2.08;;;10.00;99.90;;;;;;5026845;28;20388;-82
2023/03/31 01:09:12;;;;;;;10.00;2.28;;;9.90;99.90;;;;;;5031877;28;20285;-82
2023/03/31 01:11:39;;;;;;;12.10;2.05;;;9.90;99.90;;;;;;5036067;28;20033;-82
2023/03/31 01:14:06;;;;;;;8.02;1.83;;;10.00;99.90;;;;;;5031508;28;20053;-82
2023/03/31 01:16:32;;;;;;;15.15;2.78;;;10.00;99.90;;;;;;5022170;28;20021;-82
2023/03/31 01:18:58;;;;;;;7.93;1.67;;;10.00;99.90;;;;;;5026670;28;20494;-82
2023/03/31 01:21:37;;;;;;;12.07;3.00;;;10.00;99.90;;;;;;5027763;28;20311;-83
2023/03/31 01:24:36;;;;;;;8.18;2.22;;;10.00;99.90;;;;;;5030591;28;20029;-83
2023/03/31 01:27:27;;;;;;;8.93;2.15;;;10.00;99.90;;;;;;5028991;28;20033;-83
2023/03/31 01:30:10;;;;;;;9.57;2.40;;;10.00;99.90;;;;;;5027073;28;20041;-83
2023/03/31 01:33:16;;;;;;;12.65;2.47;;;10.00;99.90;;;;;;5027037;28;20029;-83
2023/03/31 01:36:08;;;;;;;11.73;2.42;;;10.00;99.90;;;;;;5026227;28;20045;-83
2023/03/31 01:38:43;;;;;;;9.40;1.85;;;10.00;99.90;;;;;;5039488;28;20029;-83
2023/03/31 01:41:11;;;;;;;12.85;2.10;;;10.00;99.90;;;;;;5033968;28;20063;-82
2023/03/31 01:44:02;;;;;;;15.65;2.47;;;10.00;99.90;;;;;;5034211;28;20029;-83
2023/03/31 01:46:35;;;;;;;10.27;2.17;;;9.90;99.90;;;;;;5031393;28;20108;-83
2023/03/31 01:49:10;;;;;;;4.07;1.70;;;9.90;99.90;;;;;;5028628;28;20103;-83
2023/03/31 01:52:00;;;;;;;10.57;2.20;;;9.90;99.90;;;;;;5029791;28;20025;-82
2023/03/31 01:54:45;;;;;;;10.30;1.92;;;9.90;99.90;;;;;;5026945;28;20471;-82
2023/03/31 01:57:11;;;;;;;11.93;2.17;;;9.90;99.90;;;;;;5038506;28;20427;-83
2023/03/31 01:59:45;;;;;;;8.38;2.22;;;9.90;99.90;;;;;;5033110;28;20128;-83
2023/03/31 02:02:22;;;;;;;11.05;2.05;;;10.00;99.90;;;;;;5025815;28;20621;-83
2023/03/31 02:04:57;;;;;;;11.82;2.10;;;10.00;99.90;;;;;;5034748;28;20033;-83
2023/03/31 02:07:29;;;;;;;7.57;1.73;;;10.00;99.90;;;;;;5026582;28;20048;-83
2023/03/31 02:09:58;;;;;;;7.45;1.75;;;9.90;99.90;;;;;;5041401;28;20538;-83
2023/03/31 02:12:26;;;;;;;9.45;3.00;;;9.90;99.90;;;;;;5036372;28;20056;-83
2023/03/31 02:14:55;;;;;;;9.15;2.20;;;9.90;99.90;;;;;;5041649;28;20033;-82
2023/03/31 02:17:29;;;;;;;9.55;1.83;;;9.90;99.90;;;;;;5037975;28;20056;-83
2023/03/31 02:19:57;;;;;;;10.93;1.60;;;9.90;99.90;;;;;;5027164;28;20120;-83
2023/03/31 02:22:23;;;;;;;10.07;1.80;;;9.90;99.90;;;;;;5029166;28;20052;-83
2023/03/31 02:24:52;;;;;;;9.38;2.00;;;9.90;99.90;;;;;;5033817;28;20474;-83
2023/03/31 02:27:33;;;;;;;7.13;1.77;;;9.90;99.90;;;;;;5033968;28;20063;-83
2023/03/31 02:29:59;;;;;;;17.30;2.20;;;9.90;99.90;;;;;;5038075;28;20501;-83
2023/03/31 02:32:31;;;;;;;7.25;1.77;;;9.80;99.90;;;;;;5033158;28;20025;-83
2023/03/31 02:34:58;;;;;;;8.30;1.60;;;9.80;99.90;;;;;;5036865;28;20030;-83
2023/03/31 02:37:25;;;;;;;11.45;2.05;;;9.80;99.90;;;;;;5032935;28;20025;-83
2023/03/31 02:39:54;;;;;;;12.30;2.30;;;9.80;99.90;;;;;;5026732;28;20407;-83
2023/03/31 02:42:20;;;;;;;8.73;2.33;;;9.80;99.90;;;;;;5038908;28;20033;-81
2023/03/31 02:44:46;;;;;;;10.60;2.47;;;9.90;99.90;;;;;;5026718;28;20601;-82
2023/03/31 02:47:14;;;;;;;11.38;2.25;;;9.90;99.90;;;;;;5034854;28;20117;-82
2023/03/31 02:49:48;;;;;;;9.55;1.52;;;9.90;99.90;;;;;;5036421;28;20474;-83
2023/03/31 02:52:43;;;;;;;9.05;1.67;;;10.00;99.90;;;;;;5041113;28;20040;-82
2023/03/31 02:55:24;;;;;;;14.30;2.92;;;10.00;99.90;;;;;;5031904;28;20025;-82
2023/03/31 02:58:02;;;;;;;22.08;2.30;;;10.00;99.90;;;;;;5022960;28;20414;-82
2023/03/31 03:01:11;;;;;;;12.95;2.20;;;10.00;99.90;;;;;;5037596;28;20172;-82
2023/03/31 03:03:57;;;;;;;11.93;2.13;;;10.00;99.90;;;;;;5035736;28;20394;-80
2023/03/31 03:06:36;;;;;;;10.73;2.17;;;10.00;99.90;;;;;;5035808;28;20052;-82
2023/03/31 03:09:17;;;;;;;16.95;2.05;;;10.00;99.90;;;;;;5032990;28;20048;-82
2023/03/31 03:12:14;;;;;;;8.80;1.77;;;10.00;99.90;;;;;;5028258;28;20053;-82
2023/03/31 03:14:51;;;;;;;10.02;1.95;;;10.00;99.90;;;;;;5034857;28;20524;-82
2023/03/31 03:17:36;;;;;;;5.65;2.05;;;10.00;99.90;;;;;;5029168;28;20057;-82
2023/03/31 03:20:08;;;;;;;11.02;2.45;;;10.00;99.90;;;;;;5032992;28;20055;-82
2023/03/31 03:22:37;;;;;;;8.77;1.83;;;10.00;99.90;;;;;;5032914;28;20296;-82
2023/03/31 03:25:09;;;;;;;7.43;1.92;;;9.90;99.90;;;;;;5030720;28;20082;-82
2023/03/31 03:27:35;;;;;;;9.73;2.78;;;9.90;99.90;;;;;;5033310;28;20068;-82
2023/03/31 03:30:08;;;;;;;6.68;2.13;;;9.80;99.90;;;;;;5029427;28;20388;-82
2023/03/31 03:32:40;;;;;;;11.38;1.85;;;9.80;99.90;;;;;;5030338;28;20549;-83
2023/03/31 03:35:06;;;;;;;19.15;2.63;;;9.80;99.90;;;;;;5035188;28;20063;-83
2023/03/31 03:37:33;;;;;;;11.95;2.58;;;9.90;99.90;;;;;;5033603;28;20040;-82
2023/03/31 03:39:59;;;;;;;15.18;2.97;;;9.90;99.90;;;;;;5036052;28;20112;-80
2023/03/31 03:42:25;;;;;;;17.60;3.85;;;9.90;99.90;;;;;;5023313;28;20120;-83
2023/03/31 03:44:53;;;;;;;17.67;2.85;;;9.90;99.90;;;;;;5025051;28;20757;-83
2023/03/31 03:47:19;;;;;;;12.13;2.65;;;9.90;99.90;;;;;;5030463;28;20057;-82
2023/03/31 03:49:44;;;;;;;13.02;3.38;;;9.90;99.90;;;;;;5031594;28;20049;-83
2023/03/31 03:52:10;;;;;;;13.00;2.60;;;9.90;99.90;;;;;;5024171;28;20025;-83
2023/03/31 03:54:36;;;;;;;8.68;2.40;;;9.90;99.90;;;;;;5036062;28;20538;-81
2023/03/31 03:57:01;;;;;;;7.32;2.25;;;9.90;99.90;;;;;;5029911;28;20037;-82
2023/03/31 03:59:27;;;;;;;11.38;2.38;;;9.90;99.90;;;;;;5030615;28;20029;-83
2023/03/31 04:02:03;;;;;;;12.07;2.35;;;9.90;99.90;;;;;;5028345;28;20191;-81
2023/03/31 04:04:29;;;;;;;9.55;2.30;;;9.90;99.90;;;;;;5031188;28;20033;-82
2023/03/31 04:06:54;;;;;;;11.65;2.03;;;9.90;99.90;;;;;;5036086;28;20501;-82
2023/03/31 04:09:23;;;;;;;14.13;2.45;;;9.90;99.90;;;;;;5032748;28;20041;-81
2023/03/31 04:12:01;;;;;;;15.35;2.92;;;9.80;99.90;;;;;;5026318;28;20474;-82
2023/03/31 04:14:27;;;;;;;9.30;2.53;;;9.80;99.90;;;;;;5034698;28;20033;-83
2023/03/31 04:16:55;;;;;;;13.38;2.28;;;9.80;99.90;;;;;;5033761;28;20475;-82
2023/03/31 04:19:24;;;;;;;12.45;2.28;;;9.80;99.90;;;;;;5026950;28;20398;-82
2023/03/31 04:21:57;;;;;;;12.93;2.13;;;9.80;99.90;;;;;;5036945;28;20045;-82
2023/03/31 04:24:29;;;;;;;16.52;3.03;;;9.80;99.90;;;;;;5022632;28;20034;-82
2023/03/31 04:26:55;;;;;;;14.68;3.10;;;9.80;99.90;;;;;;5034281;28;20033;-82
2023/03/31 04:29:25;;;;;;;19.05;2.60;;;9.80;99.90;;;;;;5034135;28;20098;-81
2023/03/31 04:31:53;;;;;;;14.07;2.70;;;9.80;99.90;;;;;;5030039;28;20411;-83
2023/03/31 04:34:21;;;;;;;16.45;2.58;;;9.80;99.90;;;;;;5027443;28;20014;-81
2023/03/31 04:36:47;;;;;;;9.57;2.40;;;9.80;99.90;;;;;;5029416;28;20037;-83
2023/03/31 04:39:23;;;;;;;10.50;2.80;;;9.80;99.90;;;;;;5032628;28;20029;-81
2023/03/31 04:41:49;;;;;;;15.75;2.67;;;9.80;99.90;;;;;;5027553;28;20037;-84
2023/03/31 04:44:14;;;;;;;7.65;2.40;;;9.80;99.90;;;;;;5036799;28;20540;-82
2023/03/31 04:46:40;;;;;;;10.02;2.28;;;9.80;99.90;;;;;;5031858;28;20026;-82
2023/03/31 04:49:05;;;;;;;11.77;2.92;;;9.70;99.90;;;;;;5032690;28;20067;-82
2023/03/31 04:51:31;;;;;;;7.63;2.30;;;9.70;99.90;;;;;;5026890;28;20075;-83
2023/03/31 04:53:57;;;;;;;9.27;2.42;;;9.80;99.90;;;;;;5032301;28;20446;-81
2023/03/31 04:56:22;;;;;;;6.93;2.40;;;9.80;99.90;;;;;;5022009;28;20095;-81
2023/03/31 04:58:48;;;;;;;20.20;3.55;;;9.80;99.90;;;;;;5030223;28;20099;-82
2023/03/31 05:01:16;;;;;;;13.93;2.60;;;9.80;99.90;;;;;;5017999;28;20054;-81
2023/03/31 05:03:42;;;;;;;9.88;2.55;;;9.80;99.90;;;;;;5024632;28;20453;-82
2023/03/31 05:06:09;;;;;;;15.70;2.83;;;9.80;99.90;;;;;;5026075;28;20029;-81
2023/03/31 05:08:37;;;;;;;11.80;2.50;;;9.90;99.90;;;;;;5023142;28;20069;-86
2023/03/31 05:11:03;;;;;;;12.95;3.08;;;9.90;99.90;;;;;;5020433;28;20083;-82
2023/03/31 05:13:29;;;;;;;9.93;2.20;;;9.90;99.90;;;;;;5032368;28;20033;-83
2023/03/31 05:15:55;;;;;;;10.00;2.45;;;9.90;99.90;;;;;;5029880;28;20029;-80
2023/03/31 05:18:20;;;;;;;16.90;2.85;;;9.90;99.90;;;;;;5023596;28;20026;-85
2023/03/31 05:20:46;;;;;;;13.23;2.53;;;10.00;99.90;;;;;;5024255;28;20083;-83
2023/03/31 05:23:12;;;;;;;9.75;2.60;;;10.00;99.90;;;;;;5024456;28;20091;-82
2023/03/31 05:25:41;;;;;;;13.63;3.00;;;10.10;99.90;;;;;;5033267;28;20037;-82
2023/03/31 05:28:08;;;;;;;11.52;2.90;;;10.00;99.90;;;;;;5026057;28;20049;-82
2023/03/31 05:30:34;;;;;;;10.05;2.25;;;10.10;99.90;;;;;;5028150;28;20030;-81
2023/03/31 05:32:59;;;;;;;13.27;3.53;;;10.10;99.90;;;;;;5028178;28;20090;-80
2023/03/31 05:35:25;;;;;;;14.88;2.50;;;10.10;99.90;;;;;;5033665;28;20032;-80
2023/03/31 05:37:51;;;;;;;10.70;2.58;;;10.20;99.90;;;;;;5030843;28;20380;-80
2023/03/31 05:40:17;;;;;;;13.48;2.78;;;10.20;99.90;;;;;;5022695;28;20394;-81
2023/03/31 05:42:42;;;;;;;10.40;2.25;;;10.20;99.90;;;;;;5028909;28;20045;-81
2023/03/31 05:45:08;;;;;;;11.45;2.47;;;10.20;99.90;;;;;;5023261;28;20033;-81
2023/03/31 05:47:34;;;;;;;18.73;2.63;;;10.10;99.90;;;;;;5029481;28;20032;-82
2023/03/31 05:49:59;;;;;;;11.93;2.67;;;10.20;99.90;;;;;;5024768;28;20029;-81
2023/03/31 05:52:25;;;;;;;18.92;3.15;;;10.20;99.90;;;;;;5026470;28;20104;-80
2023/03/31 05:55:01;;;;;;;9.07;2.30;;;10.20;99.90;;;;;;5021568;28;20490;-81
2023/03/31 05:57:26;;;;;;;13.48;3.50;;;10.20;99.90;;;;;;5023661;28;20527;-80
2023/03/31 05:59:52;;;;;;;11.05;2.58;;;10.20;99.90;;;;;;5024139;28;20112;-81
2023/03/31 06:02:17;;;;;;;15.23;3.00;;;10.20;99.90;;;;;;5025741;28;20168;-81
2023/03/31 06:04:43;;;;;;;5.03;2.20;;;10.20;99.90;;;;;;5033012;28;20350;-81
2023/03/31 06:07:09;;;;;;;11.65;3.45;;;10.20;99.90;;;;;;5028473;28;20025;-81
2023/03/31 06:09:34;;;;;;;9.35;2.00;;;10.20;99.90;;;;;;5030265;28;20137;-81
2023/03/31 06:12:00;;;;;;;8.13;2.00;;;10.10;99.90;;;;;;5022049;28;20075;-80
2023/03/31 06:14:26;;;;;;;10.95;2.28;;;10.10;99.90;;;;;;5036065;28;20124;-80
2023/03/31 06:16:52;;;;;;;10.18;2.22;;;10.20;99.90;;;;;;5042273;28;20389;-80
2023/03/31 06:19:17;;;;;;;10.88;2.72;;;10.20;99.90;;;;;;5041665;28;20023;-81
2023/03/31 06:21:43;;;;;;;6.82;1.92;;;10.20;99.90;;;;;;5033565;28;20065;-81
2023/03/31 06:24:09;;;;;;;6.50;1.58;;;10.20;99.90;;;;;;5044632;28;20057;-80
2023/03/31 06:26:34;;;;;;;14.57;2.40;;;10.20;99.90;;;;;;5046784;28;20021;-80
2023/03/31 06:29:00;;;;;;;7.90;2.42;;;10.20;99.90;;;;;;5049780;28;20470;-80
2023/03/31 06:31:27;;;;;;;4.20;1.75;;;10.30;99.90;;;;;;5047041;28;20037;-81
2023/03/31 06:33:54;;;;;;;16.55;3.78;;;10.20;99.90;;;;;;5039355;28;20030;-80
2023/03/31 06:36:23;;;;;;;10.77;2.65;;;10.20;99.90;;;;;;5043373;28;20088;-81
2023/03/31 06:38:49;;;;;;;11.57;2.28;;;10.30;99.90;;;;;;5044587;28;20067;-81
2023/03/31 06:41:17;;;;;;;14.93;2.20;;;10.30;99.90;;;;;;5041749;28;20482;-80
2023/03/31 06:43:43;;;;;;;13.85;3.05;;;10.30;99.90;;;;;;5043119;28;20463;-80
2023/03/31 06:46:09;;;;;;;11.30;2.30;;;10.30;99.90;;;;;;5040434;28;20036;-79
2023/03/31 06:48:34;;;;;;;8.20;2.25;;;10.40;99.90;;;;;;5042259;28;20321;-81
2023/03/31 06:51:01;;;;;;;6.20;1.83;;;10.40;99.90;;;;;;5039947;28;20341;-81
2023/03/31 06:53:28;;;;;;;11.05;2.00;;;10.40;99.90;;;;;;5040066;28;20467;-80
2023/03/31 06:55:53;;;;;;;8.02;2.70;;;10.40;99.90;;;;;;5042880;28;20053;-82
2023/03/31 06:58:19;;;;;;;9.43;3.17;;;10.40;99.90;;;;;;5030114;28;20634;-81
2023/03/31 07:00:45;;;;;;;12.48;2.28;;;10.50;99.90;;;;;;5036984;28;20037;-80
2023/03/31 07:03:11;;;;;;;12.98;2.47;;;10.50;99.90;;;;;;5048171;28;20051;-81
2023/03/31 07:05:37;;;;;;;13.38;2.75;;;10.50;99.90;;;;;;5045239;28;20033;-80
2023/03/31 07:08:03;;;;;;;11.82;2.42;;;10.60;99.90;;;;;;5039289;28;20036;-81
2023/03/31 07:10:30;;;;;;;9.10;2.15;;;10.60;99.90;;;;;;5049206;28;20029;-80
2023/03/31 07:12:56;;;;;;;16.73;2.75;;;10.70;99.90;;;;;;5047229;28;20550;-79
2023/03/31 07:15:22;;;;;;;12.20;2.60;;;10.70;99.90;;;;;;5041957;28;20068;-80
2023/03/31 07:17:49;;;;;;;15.32;2.90;;;10.70;99.90;;;;;;5041699;28;20029;-79
2023/03/31 07:20:19;;;;;;;10.27;2.75;;;10.70;99.90;;;;;;5046402;28;20100;-83
2023/03/31 07:22:46;;;;;;;14.18;2.85;;;10.70;99.90;;;;;;5048229;28;20124;-80
2023/03/31 07:25:15;;;;;;;11.45;2.83;;;10.80;99.90;;;;;;5048606;28;20031;-80
2023/03/31 07:27:41;;;;;;;13.77;3.67;;;10.70;99.90;;;;;;5036144;28;20026;-80
2023/03/31 07:30:12;;;;;;;9.43;2.55;;;10.70;99.90;;;;;;5040756;28;20038;-81
2023/03/31 07:32:39;;;;;;;17.38;3.95;;;10.70;99.90;;;;;;5044499;28;20033;-86
2023/03/31 07:35:06;;;;;;;9.57;2.42;;;10.80;99.90;;;;;;5043682;28;20036;-83
2023/03/31 07:37:42;;;;;;;8.30;2.80;;;10.80;99.90;;;;;;5042252;28;20061;-81
2023/03/31 07:40:14;;;;;;;;;;;10.90;99.90;;;;;;5043018;28;20036;-80
2023/03/31 07:42:39;;;;;;;12.98;2.92;;;10.80;99.90;;;;;;5043179;28;19917;-79
2023/03/31 07:45:07;;;;;;;11.65;3.40;;;10.80;99.90;;;;;;5044726;28;20032;-80
2023/03/31 07:47:32;;;;;;;9.30;2.20;;;10.90;99.90;;;;;;5041785;28;20094;-81
2023/03/31 07:49:58;;;;;;;18.85;3.22;;;10.90;99.90;;;;;;5047248;28;20514;-81
2023/03/31 07:52:23;;;;;;;16.42;3.47;;;10.90;99.90;;;;;;5040083;28;20039;-80
2023/03/31 07:54:50;;;;;;;13.98;3.20;;;10.90;99.90;;;;;;5038490;28;20141;-80
2023/03/31 07:57:18;;;;;;;11.65;2.75;;;10.90;99.90;;;;;;5039523;28;20434;-80
2023/03/31 07:59:46;;;;;;;19.85;3.17;;;10.90;99.90;;;;;;5045033;28;20017;-81
2023/03/31 08:02:13;;;;;;;6.43;2.45;;;10.90;99.90;;;;;;5037541;28;20045;-80
2023/03/31 08:04:41;;;;;;;12.07;3.28;;;10.90;99.90;;;;;;5034106;28;20031;-80
2023/03/31 08:07:07;;;;;;;21.08;3.50;;;10.90;99.90;;;;;;5038736;28;20039;-79
2023/03/31 08:09:33;;;;;;;10.68;2.60;;;11.00;99.90;;;;;;5042385;28;20558;-80
2023/03/31 08:11:59;;;;;;;11.40;3.00;;;11.00;99.90;;;;;;5031648;28;20112;-80
2023/03/31 08:14:24;;;;;;;20.70;4.13;;;11.00;99.90;;;;;;5032110;28;20367;-79
2023/03/31 08:16:52;;;;;;;12.40;2.70;;;11.10;99.90;;;;;;5033617;28;20109;-80
2023/03/31 08:19:17;;;;;;;12.98;2.97;;;11.10;99.90;;;;;;5034276;28;20061;-80
2023/03/31 08:21:43;;;;;;;10.50;2.15;;;11.10;99.90;;;;;;5031550;28;20060;-80
2023/03/31 08:24:08;;;;;;;8.38;2.42;;;11.10;99.90;;;;;;5034633;28;20029;-80
2023/03/31 08:26:34;;;;;;;9.40;2.25;;;11.10;99.90;;;;;;5033169;28;20863;-80
2023/03/31 08:28:59;;;;;;;10.05;2.53;;;11.10;99.90;;;;;;5036480;28;20295;-80
2023/03/31 08:31:27;;;;;;;20.15;3.15;;;11.10;99.90;;;;;;5032503;28;20040;-79
2023/03/31 08:33:53;;;;;;;9.45;2.47;;;11.20;99.90;;;;;;5038181;28;20479;-80
2023/03/31 08:36:19;;;;;;;18.33;3.20;;;11.20;99.90;;;;;;5036294;28;20078;-80
2023/03/31 08:38:48;;;;;;;9.65;2.05;;;11.20;99.90;;;;;;5036134;28;20033;-80
2023/03/31 08:41:45;;;;;;;13.38;2.50;;;11.20;99.90;;;;;;5030351;28;20479;-80
2023/03/31 08:44:13;;;;;;;;;;;11.20;99.90;;;;;;5037288;28;20108;-81
2023/03/31 08:46:41;;;;;;;7.15;1.52;;;11.20;99.90;;;;;;5030770;28;19916;-81
2023/03/31 08:49:10;;;;;;;18.10;3.30;;;11.20;99.90;;;;;;5027049;28;20497;-80
2023/03/31 08:51:42;;;;;;;15.93;3.35;;;11.20;99.90;;;;;;5039230;28;20112;-81
2023/03/31 08:54:39;;;;;;;10.95;1.83;;;11.20;99.90;;;;;;5028877;28;20040;-80
2023/03/31 08:57:21;;;;;;;8.27;1.65;;;11.20;99.90;;;;;;5028651;28;20048;-80
2023/03/31 08:59:47;;;;;;;6.72;1.60;;;11.20;99.90;;;;;;5032100;28;20053;-80
2023/03/31 09:02:40;;;;;;;8.18;1.98;;;11.20;99.90;;;;;;5036835;28;20052;-80
2023/03/31 09:05:10;;;;;;;6.40;1.85;;;11.20;99.90;;;;;;5033465;28;20042;-80
2023/03/31 09:07:56;;;;;;;7.28;1.80;;;11.20;99.90;;;;;;5034904;28;20032;-80
2023/03/31 09:10:30;;;;;;;6.43;1.67;;;11.20;99.90;;;;;;5036052;28;20032;-79
2023/03/31 09:13:20;;;;;;;9.50;1.75;;;11.20;99.90;;;;;;5035647;28;20029;-79
2023/03/31 09:16:04;;;;;;;9.30;1.70;;;11.20;99.90;;;;;;5032713;28;20757;-80
2023/03/31 09:18:35;;;;;;;6.22;1.63;;;11.20;99.90;;;;;;5030719;28;20033;-80
2023/03/31 09:21:20;;;;;;;5.78;1.58;;;11.20;99.90;;;;;;5037163;28;20036;-80
2023/03/31 09:24:06;;;;;;;5.97;1.98;;;11.20;99.90;;;;;;5023694;28;20049;-80
2023/03/31 09:26:37;;;;;;;6.18;1.58;;;11.10;99.90;;;;;;5041425;28;20482;-80
2023/03/31 09:29:09;;;;;;;9.07;1.83;;;11.10;99.90;;;;;;5032331;28;20033;-79
2023/03/31 09:31:34;;;;;;;5.70;1.77;;;11.10;99.90;;;;;;5031080;28;20102;-79
2023/03/31 09:34:14;;;;;;;4.78;1.50;;;11.10;99.90;;;;;;5036759;28;20478;-81
2023/03/31 09:36:40;;;;;;;4.18;1.52;;;11.10;99.90;;;;;;5035103;28;20262;-80
2023/03/31 09:39:11;;;;;;;5.78;1.80;;;11.10;99.90;;;;;;5037850;28;20098;-79
2023/03/31 09:41:38;;;;;;;4.82;1.60;;;11.10;99.90;;;;;;5029344;28;20487;-82
2023/03/31 09:44:05;;;;;;;5.38;1.50;;;11.10;99.90;;;;;;5030673;28;20112;-80
2023/03/31 09:46:36;;;;;;;5.55;1.05;;;11.10;99.90;;;;;;5034075;28;20409;-80
2023/03/31 09:49:11;;;;;;;1.60;1.00;;;11.10;99.90;;;;;;5037732;28;20033;-81
2023/03/31 09:51:40;;;;;;;4.90;1.23;;;11.10;99.90;;;;;;5029592;28;20036;-79
2023/03/31 09:54:18;;;;;;;10.85;1.50;;;11.00;99.90;;;;;;5035340;28;20037;-79
2023/03/31 09:56:47;;;;;;;4.53;1.40;;;10.90;99.90;;;;;;5037846;28;20049;-79
2023/03/31 09:59:21;;;;;;;3.58;1.15;;;10.90;99.90;;;;;;5024392;28;20061;-81
2023/03/31 10:01:51;;;;;;;1.25;1.00;;;10.90;99.90;;;;;;5038065;28;20107;-82
2023/03/31 10:04:23;;;;;;;2.40;1.08;;;10.90;99.90;;;;;;5038893;28;20482;-80
2023/03/31 10:06:52;;;;;;;4.32;1.20;;;10.80;99.90;;;;;;5037751;28;20029;-79
2023/03/31 10:09:22;;;;;;;4.53;1.10;;;10.70;99.90;;;;;;5037519;28;20038;-80
2023/03/31 10:12:14;;;;;;;2.55;0.85;;;10.60;99.90;;;;;;5040537;28;20034;-79
2023/03/31 10:14:44;;;;;;;4.78;1.10;;;10.60;99.90;;;;;;5033143;28;20040;-79
2023/03/31 10:17:18;;;;;;;1.60;0.70;;;10.60;99.90;;;;;;5033502;28;20474;-80
2023/03/31 10:20:17;;;;;;;1.70;0.82;;;10.60;99.90;;;;;;5037017;28;20367;-80
2023/03/31 10:22:44;;;;;;;3.05;0.95;;;10.50;99.90;;;;;;5037922;28;20495;-80
2023/03/31 10:25:22;;;;;;;4.38;0.80;;;10.40;99.90;;;;;;5038658;28;20021;-79
2023/03/31 10:27:52;;;;;;;0.77;0.77;;;10.40;99.90;;;;;;5037366;28;20029;-82
2023/03/31 10:30:22;;;;;;;1.15;0.90;;;10.40;99.90;;;;;;5035975;28;20501;-80
2023/03/31 10:32:48;;;;;;;4.05;1.80;;;10.40;99.90;;;;;;5033092;28;20387;-80
2023/03/31 10:35:35;;;;;;;2.25;0.88;;;10.30;99.90;;;;;;5037112;28;20029;-80
2023/03/31 10:38:09;;;;;;;3.17;1.00;;;10.30;99.90;;;;;;5030483;28;20029;-82
2023/03/31 10:40:35;;;;;;;3.03;1.67;;;10.30;99.90;;;;;;5038606;28;20029;-79
2023/03/31 10:43:11;;;;;;;5.72;2.50;;;10.20;99.90;;;;;;5036745;28;20049;-80
2023/03/31 10:45:50;;;;;;;3.72;1.38;;;10.20;99.90;;;;;;5034730;28;20034;-79
2023/03/31 10:48:38;;;;;;;2.47;1.20;;;10.10;99.90;;;;;;5045013;28;20401;-79
2023/03/31 10:51:17;;;;;;;2.20;1.60;;;10.00;99.90;;;;;;5029896;28;20085;-79
2023/03/31 10:53:51;;;;;;;1.42;1.33;;;10.00;99.90;;;;;;5036113;28;20022;-81
2023/03/31 10:56:34;;;;;;;1.77;1.48;;;9.90;99.90;;;;;;5034475;28;20636;-79
2023/03/31 10:59:20;;;;;;;3.58;1.25;;;10.00;99.90;;;;;;5035636;28;20025;-79
2023/03/31 11:02:04;;;;;;;7.25;1.40;;;9.90;99.90;;;;;;5046227;28;20524;-79
2023/03/31 11:04:48;;;;;;;4.50;2.22;;;9.90;99.90;;;;;;5036202;28;20389;-80
2023/03/31 11:07:15;;;;;;;4.53;1.63;;;9.90;99.90;;;;;;5039240;28;20116;-79
2023/03/31 11:10:02;;;;;;;6.43;1.33;;;9.90;99.90;;;;;;5038430;28;20182;-79
2023/03/31 11:12:43;;;;;;;2.40;1.17;;;9.90;99.90;;;;;;5038280;28;20025;-79
2023/03/31 11:15:25;;;;;;;2.78;1.08;;;9.90;99.90;;;;;;5045519;28;20032;-79
2023/03/31 11:18:11;;;;;;;2.45;0.93;;;9.90;99.90;;;;;;5046427;28;20245;-80
2023/03/31 11:21:16;;;;;;;4.55;1.88;;;9.90;99.90;;;;;;5046484;28;20034;-79
2023/03/31 11:23:52;;;;;;;5.95;1.60;;;10.10;99.90;;;;;;5041317;28;20061;-79
2023/03/31 11:26:38;;;;;;;4.40;1.40;;;10.10;99.90;;;;;;5037255;28;20113;-80
2023/03/31 11:29:16;;;;;;;4.50;1.70;;;10.10;99.90;;;;;;5031558;28;20067;-80
2023/03/31 11:31:48;;;;;;;3.00;1.25;;;10.10;99.90;;;;;;5041690;28;20021;-79
2023/03/31 11:34:34;;;;;;;3.20;1.75;;;10.10;99.90;;;;;;5047910;28;20112;-79
2023/03/31 11:37:04;;;;;;;1.17;1.10;;;10.10;99.90;;;;;;5039626;28;20120;-80
2023/03/31 11:39:47;;;;;;;1.27;1.00;;;10.10;99.90;;;;;;5043679;28;20025;-79
2023/03/31 11:42:21;;;;;;;2.55;1.10;;;10.10;99.90;;;;;;5037590;28;20054;-79
2023/03/31 11:44:52;;;;;;;3.15;1.30;;;10.20;99.90;;;;;;5042631;28;20033;-79
2023/03/31 11:47:36;;;;;;;2.45;1.00;;;10.30;99.90;;;;;;5032201;28;20060;-80
2023/03/31 11:50:15;;;;;;;2.08;0.80;;;10.30;99.90;;;;;;5046752;28;20032;-80
2023/03/31 11:52:47;;;;;;;2.10;1.15;;;10.30;99.90;;;;;;5045958;28;20029;-79
2023/03/31 11:55:18;;;;;;;1.85;0.82;;;10.30;99.90;;;;;;5034212;28;20390;-80
2023/03/31 11:57:56;;;;;;;2.78;1.00;;;10.30;99.90;;;;;;5025251;28;20526;-80
2023/03/31 12:00:37;;;;;;;2.53;0.80;;;10.30;99.90;;;;;;5023011;28;20053;-81
2023/03/31 12:03:12;;;;;;;2.58;1.30;;;10.30;99.90;;;;;;5020064;28;20041;-80
2023/03/31 12:05:49;;;;;;;2.47;0.90;;;10.30;99.90;;;;;;5024371;28;20491;-80
2023/03/31 12:08:21;;;;;;;1.73;1.10;;;10.40;99.90;;;;;;5029485;28;20033;-80
2023/03/31 12:10:57;;;;;;;1.90;1.10;;;10.40;99.90;;;;;;5037557;28;20036;-80
2023/03/31 12:13:35;;;;;;;2.03;1.05;;;10.40;99.90;;;;;;5033038;28;20025;-80
2023/03/31 12:16:35;;;;;;;2.85;1.17;;;10.50;99.90;;;;;;5028513;28;20025;-80
2023/03/31 12:19:15;;;;;;;2.67;0.90;;;10.60;99.90;;;;;;5020520;28;20030;-79
2023/03/31 12:21:54;;;;;;;1.85;1.13;;;10.70;99.90;;;;;;5027398;28;20032;-80
2023/03/31 12:24:19;;;;;;;2.92;1.40;;;10.70;99.90;;;;;;5024153;28;20037;-80
2023/03/31 12:27:05;;;;;;;2.45;1.00;;;10.80;99.90;;;;;;5024893;28;20025;-80
2023/03/31 12:29:33;;;;;;;;;;;10.80;99.90;;;;;;5026691;28;20033;-79
2023/03/31 12:32:04;;;;;;;2.85;1.00;;;10.90;99.90;;;;;;5025222;28;19962;-81
2023/03/31 12:34:31;;;;;;;5.65;1.50;;;11.00;99.90;;;;;;5027062;28;20357;-80
2023/03/31 12:37:09;;;;;;;3.72;1.27;;;11.00;99.90;;;;;;5028770;28;20036;-80
2023/03/31 12:40:10;;;;;;;2.28;0.88;;;11.00;99.90;;;;;;5026536;28;20462;-81
2023/03/31 12:42:51;;;;;;;4.22;1.15;;;11.10;99.90;;;;;;5035822;28;20029;-80
2023/03/31 12:45:30;;;;;;;1.80;1.00;;;11.20;99.90;;;;;;5032799;28;20142;-80
2023/03/31 12:48:09;;;;;;;5.13;1.42;;;11.20;99.90;;;;;;5035064;28;20078;-80
2023/03/31 12:51:03;;;;;;;6.22;1.40;;;11.30;99.90;;;;;;5024437;28;20029;-79
2023/03/31 12:53:31;;;;;;;6.05;1.30;;;11.40;99.90;;;;;;5028876;28;20057;-80
2023/03/31 12:55:58;;;;;;;4.15;1.20;;;11.50;99.90;;;;;;5030136;28;20033;-79
2023/03/31 12:58:23;;;;;;;4.15;1.38;;;11.60;99.90;;;;;;5034219;28;20029;-80
2023/03/31 13:01:20;;;;;;;2.22;1.17;;;11.70;99.90;;;;;;5033275;28;20587;-80
2023/03/31 13:03:50;;;;;;;4.60;1.33;;;11.80;99.90;;;;;;5028246;28;20092;-81
2023/03/31 13:06:28;;;;;;;3.25;1.00;;;12.00;99.90;;;;;;5029751;28;20562;-80
2023/03/31 13:09:07;;;;;;;5.55;1.45;;;12.00;99.90;;;;;;5028508;28;20029;-79
2023/03/31 13:11:32;;;;;;;6.35;1.48;;;12.10;99.90;;;;;;5060089;28;20434;-80